Wolfe Island, Canada
Current Conditions -  °F | °C
As of 11:00 PM on Thursday 23 Oct 2014 (Local Time) from CYGK Reporting Station
Broken Clouds Broken Clouds  
Wind Chill: 50°   Ceiling: 6300
Heat Index: 50°   Visibility: 15mi
Dew Point: 45°   Wind: 3mph
Humidity: 82%   Direction: 30°NNE
Pressure: 29.99"   Gusts: NA
Location:  44.19°N, 76.44°W
Report Text: CYGK 240300Z 03003KT 15SM FEW040 BKN063 10/07 A2999 RMK SC2SC5 LAST STFD OBS/NEXT 241000UTC SLP156
Loading
Personal Weather Stations






























Interactive Weather Map
Tropical Storm Tracking
New forecast layout! Learn more

10-Day Weather Forecast

Advertisements
Track Severe Weather on mobile